Time;durP1;ratioP1;P1;durP2;ratioP2;P2;SDS_P1;SDS_P2;PMS_P1;PMS_P2;Temp;Humidity;BMP_temperature;BMP_pressure;BME280_temperature;BME280_humidity;BME280_pressure;Samples;Min_cycle;Max_cycle;Signal;HPM_P1;HPM_P2
2023/10/14 00:01:15;;;;;;;3.78;0.85;;;;;;;14.39;100.00;100064.56;5030411;28;20076;-71
2023/10/14 00:03:45;;;;;;;4.85;0.70;;;;;;;14.36;100.00;100064.84;5029521;28;20048;-71
2023/10/14 00:06:12;;;;;;;3.72;0.90;;;;;;;14.35;100.00;100074.09;5028801;28;20048;-70
2023/10/14 00:08:51;;;;;;;3.83;1.02;;;;;;;14.36;100.00;100101.31;5028615;28;20041;-71
2023/10/14 00:11:17;;;;;;;3.85;0.50;;;;;;;14.38;100.00;100103.88;5049496;28;20045;-71
2023/10/14 00:13:48;;;;;;;2.85;0.60;;;;;;;14.31;100.00;100092.69;5032590;28;20421;-71
2023/10/14 00:18:48;;;;;;;2.85;0.60;;;;;;;14.25;100.00;100082.34;5029244;28;20087;-72
2023/10/14 00:21:14;;;;;;;2.20;0.50;;;;;;;14.22;100.00;100075.34;5044973;28;20079;-71
2023/10/14 00:23:40;;;;;;;2.50;0.52;;;;;;;14.26;100.00;100090.41;5028233;28;20474;-71
2023/10/14 00:26:15;;;;;;;1.92;0.50;;;;;;;14.31;100.00;100103.63;5027885;28;20072;-72
2023/10/14 00:28:45;;;;;;;1.42;0.40;;;;;;;14.30;100.00;100086.34;5028301;28;20072;-71
2023/10/14 00:31:12;;;;;;;0.75;0.50;;;;;;;14.22;100.00;100096.34;5027710;28;20053;-70
2023/10/14 00:33:38;;;;;;;1.83;0.50;;;;;;;14.16;100.00;100103.28;5027776;28;20765;-70
2023/10/14 00:36:10;;;;;;;0.82;0.55;;;;;;;14.13;100.00;100102.72;5028798;28;20041;-70
2023/10/14 00:38:37;;;;;;;2.80;0.50;;;;;;;14.16;100.00;100136.09;5029243;28;20039;-71
2023/10/14 00:41:03;;;;;;;2.05;0.50;;;;;;;14.17;100.00;100148.78;5039085;28;20045;-70
2023/10/14 00:43:28;;;;;;;0.45;0.35;;;;;;;14.23;100.00;100152.81;5027902;28;20049;-71
2023/10/14 00:45:54;;;;;;;0.85;0.40;;;;;;;14.25;100.00;100158.97;5030941;28;20443;-70
2023/10/14 00:48:27;;;;;;;1.35;0.60;;;;;;;14.24;100.00;100157.25;5048167;28;20039;-71
2023/10/14 00:50:58;;;;;;;2.72;0.70;;;;;;;14.26;100.00;100158.81;5044053;28;20041;-71
2023/10/14 00:53:27;;;;;;;0.60;0.50;;;;;;;14.27;100.00;100162.44;5017277;28;20040;-71
2023/10/14 00:55:54;;;;;;;1.50;0.45;;;;;;;14.27;100.00;100160.56;5028731;28;20021;-70
2023/10/14 00:58:21;;;;;;;1.45;0.80;;;;;;;14.22;100.00;100171.09;5019724;28;20041;-71
2023/10/14 01:00:59;;;;;;;2.38;0.80;;;;;;;14.17;100.00;100161.59;5028431;28;20116;-70
2023/10/14 01:03:36;;;;;;;1.95;0.85;;;;;;;14.13;100.00;100163.78;5026848;28;20033;-71
2023/10/14 01:06:15;;;;;;;1.55;0.82;;;;;;;14.12;100.00;100170.25;5029380;28;20602;-71
2023/10/14 01:08:43;;;;;;;2.05;1.00;;;;;;;14.08;100.00;100187.97;5028541;28;20048;-71
2023/10/14 01:11:09;;;;;;;2.40;1.17;;;;;;;14.02;100.00;100205.84;5028480;28;20048;-71
2023/10/14 01:13:36;;;;;;;5.65;1.20;;;;;;;13.93;100.00;100222.28;5028880;28;20041;-70
2023/10/14 01:16:08;;;;;;;2.08;0.82;;;;;;;13.66;100.00;100215.75;5028819;28;20041;-71
2023/10/14 01:18:34;;;;;;;;;;;;;;;13.55;100.00;100215.88;5027555;28;20545;-71
2023/10/14 01:21:00;;;;;;;3.38;0.80;;;;;;;13.36;100.00;100219.50;5027884;28;19974;-69
2023/10/14 01:23:28;;;;;;;4.28;1.02;;;;;;;13.28;100.00;100219.34;5028229;28;20041;-71
2023/10/14 01:25:53;;;;;;;4.93;1.13;;;;;;;13.25;100.00;100230.59;5028121;28;20037;-70
2023/10/14 01:28:29;;;;;;;4.15;0.88;;;;;;;13.22;100.00;100237.19;5039109;28;20387;-70
2023/10/14 01:31:41;;;;;;;5.65;1.00;;;;;;;13.25;100.00;100252.44;5046576;28;20052;-70
2023/10/14 01:34:07;;;;;;;2.37;1.27;;;;;;;13.23;100.00;100260.75;5044913;28;20385;-70
2023/10/14 01:36:41;;;;;;;11.38;1.13;;;;;;;13.15;100.00;100263.31;5048891;28;20043;-71
2023/10/14 01:39:14;;;;;;;5.88;0.75;;;;;;;13.16;100.00;100272.38;5047981;28;20074;-72
2023/10/14 01:41:39;;;;;;;3.75;1.10;;;;;;;13.13;100.00;100276.25;5032041;28;20048;-71
2023/10/14 01:44:09;;;;;;;8.25;1.15;;;;;;;13.13;100.00;100284.44;5028413;28;20026;-69
2023/10/14 01:46:37;;;;;;;7.90;1.58;;;;;;;13.08;100.00;100289.47;5026962;28;20037;-70
2023/10/14 01:49:10;;;;;;;6.03;1.20;;;;;;;13.08;100.00;100307.72;5027933;28;20128;-70
2023/10/14 01:51:37;;;;;;;4.85;1.30;;;;;;;13.01;100.00;100312.91;5028052;28;20116;-72
2023/10/14 01:54:04;;;;;;;8.07;1.48;;;;;;;12.93;100.00;100319.03;5028331;28;20033;-69
2023/10/14 01:56:31;;;;;;;11.88;2.13;;;;;;;12.82;100.00;100330.06;5027996;28;20043;-70
2023/10/14 01:58:59;;;;;;;6.47;1.20;;;;;;;12.74;100.00;100335.34;5026979;28;20033;-69
2023/10/14 02:01:27;;;;;;;7.50;1.38;;;;;;;12.72;100.00;100334.63;5026294;28;20763;-71
2023/10/14 02:03:54;;;;;;;7.20;1.55;;;;;;;12.74;100.00;100349.88;5027234;28;20049;-70
2023/10/14 02:06:28;;;;;;;6.82;1.58;;;;;;;12.76;100.00;100350.59;5027648;28;20052;-71
2023/10/14 02:08:55;;;;;;;8.23;1.40;;;;;;;12.82;100.00;100365.53;5010230;28;20033;-70
2023/10/14 02:11:24;;;;;;;8.52;1.60;;;;;;;12.81;100.00;100363.81;5025888;28;20060;-70
2023/10/14 02:13:50;;;;;;;7.40;2.72;;;;;;;12.83;100.00;100371.91;5027007;28;20506;-71
2023/10/14 02:16:18;;;;;;;6.60;1.83;;;;;;;12.84;100.00;100376.34;5027124;28;20389;-70
2023/10/14 02:18:43;;;;;;;7.82;1.52;;;;;;;12.87;100.00;100384.25;5025852;28;20121;-70
2023/10/14 02:21:11;;;;;;;5.55;1.60;;;;;;;12.81;100.00;100377.47;5026263;28;20034;-71
2023/10/14 02:23:49;;;;;;;8.35;1.30;;;;;;;12.81;100.00;100387.53;5025938;28;20068;-71
2023/10/14 02:26:30;;;;;;;9.70;2.03;;;;;;;12.84;100.00;100400.91;5031464;28;20033;-71
2023/10/14 02:28:57;;;;;;;10.45;1.90;;;;;;;12.87;100.00;100406.97;5028135;28;20548;-70
2023/10/14 02:31:30;;;;;;;11.50;1.55;;;;;;;12.85;100.00;100417.16;5025982;28;20103;-70
2023/10/14 02:33:57;;;;;;;6.60;1.30;;;;;;;12.85;100.00;100424.47;5027451;28;20487;-71
2023/10/14 02:37:13;;;;;;;7.65;1.55;;;;;;;12.80;100.00;100434.94;5047323;28;20040;-71
2023/10/14 02:39:14;;;;;;;5.10;1.40;;;;;;;12.70;100.00;100437.63;5038774;28;20133;-71
2023/10/14 02:41:43;;;;;;;4.95;1.30;;;;;;;12.66;100.00;100447.94;5040554;28;20045;-70
2023/10/14 02:46:42;;;;;;;6.25;1.50;;;;;;;12.65;100.00;100465.31;5042736;28;20531;-71
2023/10/14 02:49:09;;;;;;;7.32;1.50;;;;;;;12.59;100.00;100474.03;5030106;28;20447;-70
2023/10/14 02:51:46;;;;;;;7.28;1.70;;;;;;;12.54;100.00;100478.16;5047142;28;20544;-71
2023/10/14 02:54:26;;;;;;;8.88;1.92;;;;;;;12.50;100.00;100485.75;5045704;28;20052;-70
2023/10/14 02:57:00;;;;;;;9.55;1.52;;;;;;;12.48;100.00;100506.84;5044508;28;20036;-72
2023/10/14 03:02:14;;;;;;;9.20;1.98;;;;;;;12.28;100.00;100519.47;5042578;28;20076;-72
2023/10/14 03:04:55;;;;;;;7.05;1.60;;;;;;;12.21;100.00;100527.28;5027020;28;20048;-71
2023/10/14 03:07:28;;;;;;;9.63;2.40;;;;;;;12.12;100.00;100530.78;5029585;28;20485;-70
2023/10/14 03:09:58;;;;;;;10.10;2.08;;;;;;;12.00;100.00;100535.41;5031093;28;20405;-71
2023/10/14 03:12:25;;;;;;;11.15;1.58;;;;;;;11.95;100.00;100539.53;5029984;28;20368;-70
2023/10/14 03:14:52;;;;;;;9.00;2.85;;;;;;;11.92;100.00;100547.94;5029237;28;20025;-71
2023/10/14 03:17:25;;;;;;;13.68;1.83;;;;;;;11.88;100.00;100555.50;5030424;28;20397;-71
2023/10/14 03:19:53;;;;;;;;;;;;;;;11.89;100.00;100561.81;5030808;28;20151;-70
2023/10/14 03:22:22;;;;;;;13.07;2.75;;;;;;;11.77;100.00;100571.00;5030624;28;19909;-71
2023/10/14 03:24:50;;;;;;;10.20;1.85;;;;;;;11.69;100.00;100580.66;5030732;28;20218;-70
2023/10/14 03:27:18;;;;;;;9.07;1.90;;;;;;;11.65;100.00;100583.75;5028334;28;20013;-70
2023/10/14 03:29:51;;;;;;;8.88;2.50;;;;;;;11.61;100.00;100585.88;5030181;28;20088;-70
2023/10/14 03:32:17;;;;;;;8.95;1.42;;;;;;;11.54;100.00;100592.78;5030459;28;20037;-70
2023/10/14 03:34:43;;;;;;;9.82;1.65;;;;;;;11.50;100.00;100592.16;5038240;28;20404;-71
2023/10/14 03:37:25;;;;;;;10.05;1.85;;;;;;;11.42;100.00;100607.38;5049310;28;20036;-71
2023/10/14 03:40:35;;;;;;;8.07;2.00;;;;;;;11.37;100.00;100615.91;5032973;28;20488;-71
2023/10/14 03:42:51;;;;;;;11.05;2.42;;;;;;;11.33;100.00;100622.63;5029792;28;20520;-70
2023/10/14 03:45:20;;;;;;;12.98;1.98;;;;;;;11.30;100.00;100628.31;5012202;28;20053;-70
2023/10/14 03:47:46;;;;;;;11.95;1.83;;;;;;;11.27;100.00;100635.84;5028794;28;20465;-70
2023/10/14 03:50:14;;;;;;;5.15;1.83;;;;;;;11.23;100.00;100643.38;5029845;28;20042;-70
2023/10/14 03:52:40;;;;;;;7.80;1.48;;;;;;;11.19;100.00;100642.78;5030031;28;20030;-71
2023/10/14 03:55:06;;;;;;;7.25;1.95;;;;;;;11.15;100.00;100634.97;5028853;28;20448;-72
2023/10/14 03:57:37;;;;;;;10.02;1.70;;;;;;;11.08;100.00;100641.88;5034839;28;20124;-70
2023/10/14 04:00:12;;;;;;;9.52;1.98;;;;;;;11.05;100.00;100650.25;5033588;28;20489;-72
2023/10/14 04:02:40;;;;;;;10.05;2.95;;;;;;;10.99;100.00;100651.63;5030182;28;20111;-70
2023/10/14 04:05:11;;;;;;;13.05;1.80;;;;;;;10.97;100.00;100659.03;5028621;28;20049;-71
2023/10/14 04:07:40;;;;;;;7.22;1.75;;;;;;;10.95;100.00;100671.88;5040466;28;20060;-71
2023/10/14 04:10:09;;;;;;;6.72;1.30;;;;;;;10.94;100.00;100676.47;5049391;28;20041;-72
2023/10/14 04:12:40;;;;;;;8.25;1.65;;;;;;;10.91;100.00;100682.16;5043600;28;20095;-71
2023/10/14 04:17:38;;;;;;;8.60;1.90;;;;;;;10.80;100.00;100695.69;5043323;28;20476;-71
2023/10/14 04:20:20;;;;;;;10.15;2.13;;;;;;;10.76;100.00;100696.06;5044607;28;20121;-71
2023/10/14 04:22:46;;;;;;;9.13;1.45;;;;;;;10.72;100.00;100704.47;5029766;28;20561;-71
2023/10/14 04:30:24;;;;;;;7.43;1.63;;;;;;;10.57;100.00;100710.16;5029112;28;20045;-71
2023/10/14 04:35:25;;;;;;;8.27;1.67;;;;;;;10.49;100.00;100724.31;5029013;28;20072;-71
2023/10/14 04:37:54;;;;;;;10.32;2.40;;;;;;;10.43;100.00;100731.09;5029461;28;20024;-71
2023/10/14 04:40:53;;;;;;;12.18;1.75;;;;;;;10.39;100.00;100742.31;5028588;28;20043;-71
2023/10/14 04:43:19;;;;;;;10.23;1.77;;;;;;;10.32;100.00;100754.63;5029040;28;20516;-71
2023/10/14 04:45:52;;;;;;;11.30;1.58;;;;;;;10.31;100.00;100753.78;5028902;28;20041;-71
2023/10/14 04:48:26;;;;;;;8.07;2.10;;;;;;;10.30;100.00;100754.72;5029316;28;20373;-71
2023/10/14 04:50:57;;;;;;;10.02;1.70;;;;;;;10.26;100.00;100753.25;5029159;28;20191;-71
2023/10/14 04:53:26;;;;;;;8.60;1.73;;;;;;;10.20;100.00;100757.22;5037999;28;20033;-71
2023/10/14 04:55:55;;;;;;;16.40;2.35;;;;;;;10.18;100.00;100771.91;5047179;28;20025;-71
2023/10/14 04:58:25;;;;;;;10.32;2.45;;;;;;;10.14;100.00;100771.25;5033192;28;20073;-71
2023/10/14 05:00:52;;;;;;;9.38;1.60;;;;;;;10.11;100.00;100779.63;5028653;28;20497;-71
2023/10/14 05:03:20;;;;;;;9.45;2.70;;;;;;;10.09;100.00;100788.88;5028824;28;20390;-71
2023/10/14 05:05:52;;;;;;;13.25;2.25;;;;;;;10.06;100.00;100783.66;5028689;28;20041;-71
2023/10/14 05:08:23;;;;;;;10.40;1.58;;;;;;;10.07;100.00;100788.09;5030674;28;20033;-72
2023/10/14 05:10:52;;;;;;;10.77;2.20;;;;;;;10.07;100.00;100797.16;5028673;28;20465;-70
2023/10/14 05:13:33;;;;;;;10.35;2.60;;;;;;;10.04;100.00;100789.22;5027879;28;20043;-71
2023/10/14 05:18:58;;;;;;;13.88;2.55;;;;;;;10.03;100.00;100800.19;5039687;28;20047;-71
2023/10/14 05:21:36;;;;;;;15.75;2.33;;;;;;;10.00;100.00;100814.00;5027334;28;20112;-71
2023/10/14 05:24:03;;;;;;;12.52;1.83;;;;;;;9.99;100.00;100829.44;5026885;28;20037;-71
2023/10/14 05:26:35;;;;;;;13.32;1.70;;;;;;;9.94;100.00;100827.03;5026631;28;20541;-71
2023/10/14 05:29:19;;;;;;;8.82;2.38;;;;;;;9.95;100.00;100836.94;5010663;28;20068;-71
2023/10/14 05:31:49;;;;;;;7.90;1.98;;;;;;;9.95;100.00;100834.22;5033670;28;20396;-71
2023/10/14 05:34:17;;;;;;;11.23;2.85;;;;;;;9.95;100.00;100842.38;5027283;28;20029;-71
2023/10/14 05:36:44;;;;;;;8.07;2.15;;;;;;;9.91;100.00;100835.41;5043653;28;20042;-72
2023/10/14 05:39:10;;;;;;;11.93;2.17;;;;;;;9.90;100.00;100847.25;5027883;28;20028;-71
2023/10/14 05:41:39;;;;;;;15.68;2.28;;;;;;;9.90;100.00;100843.66;5037208;28;20033;-72
2023/10/14 05:44:05;;;;;;;12.02;3.17;;;;;;;9.85;100.00;100857.56;5041984;28;20037;-72
2023/10/14 05:46:31;;;;;;;11.05;2.25;;;;;;;9.86;100.00;100853.88;5035118;28;20044;-71
2023/10/14 05:48:56;;;;;;;9.30;1.92;;;;;;;9.91;100.00;100870.72;5035863;28;20038;-71
2023/10/14 05:51:22;;;;;;;9.98;2.05;;;;;;;9.95;100.00;100869.53;5042076;28;20037;-72
2023/10/14 05:53:51;;;;;;;8.50;2.03;;;;;;;9.97;100.00;100875.72;5031565;28;20031;-72
2023/10/14 05:56:17;;;;;;;10.13;2.20;;;;;;;9.97;100.00;100875.72;5025851;28;20382;-72
2023/10/14 05:58:45;;;;;;;7.85;1.55;;;;;;;9.99;100.00;100886.50;5041072;28;20039;-71
2023/10/14 06:01:13;;;;;;;10.93;2.08;;;;;;;10.01;100.00;100884.53;5043868;28;20400;-70
2023/10/14 06:03:41;;;;;;;6.50;1.90;;;;;;;10.00;100.00;100899.13;5043521;28;20477;-71
2023/10/14 06:06:10;;;;;;;10.63;1.83;;;;;;;9.98;100.00;100898.38;5040442;28;20126;-72
2023/10/14 06:08:39;;;;;;;11.48;1.58;;;;;;;10.04;100.00;100910.66;5037892;28;20107;-72
2023/10/14 06:11:05;;;;;;;10.02;1.67;;;;;;;10.04;100.00;100911.53;5044072;28;20044;-71
2023/10/14 06:13:34;;;;;;;12.27;2.75;;;;;;;10.09;100.00;100917.50;5043366;28;20064;-71
2023/10/14 06:16:04;;;;;;;6.75;2.30;;;;;;;10.13;100.00;100924.47;5044610;28;20124;-72
2023/10/14 06:18:30;;;;;;;9.73;1.98;;;;;;;10.17;100.00;100933.31;5039196;28;20116;-72
2023/10/14 06:20:57;;;;;;;15.85;3.30;;;;;;;10.17;100.00;100931.44;5040711;28;20067;-71
2023/10/14 06:23:26;;;;;;;9.98;2.53;;;;;;;10.21;100.00;100937.50;5046168;28;20037;-72
2023/10/14 06:25:53;;;;;;;8.13;2.15;;;;;;;10.26;100.00;100943.56;5043571;28;20108;-72
2023/10/14 06:28:19;;;;;;;11.80;1.83;;;;;;;10.31;100.00;100948.69;5044797;28;20116;-72
2023/10/14 06:30:45;;;;;;;11.60;2.13;;;;;;;10.32;100.00;100948.56;5042951;28;20059;-71
2023/10/14 06:33:11;;;;;;;11.00;1.60;;;;;;;10.32;100.00;100956.72;5046285;28;20041;-72
2023/10/14 06:35:42;;;;;;;7.93;2.00;;;;;;;10.33;100.00;100966.63;5040332;28;20530;-72
2023/10/14 06:38:09;;;;;;;11.88;2.08;;;;;;;10.35;100.00;100970.13;5045938;28;20536;-72
2023/10/14 06:40:35;;;;;;;10.25;2.47;;;;;;;10.35;100.00;100970.13;5044698;28;20041;-72
2023/10/14 06:43:09;;;;;;;13.82;2.70;;;;;;;10.36;100.00;100976.44;5042256;28;20028;-71
2023/10/14 06:45:35;;;;;;;11.32;2.22;;;;;;;10.35;100.00;100977.38;5027749;28;20052;-71
2023/10/14 06:48:09;;;;;;;6.38;1.73;;;;;;;10.35;100.00;100994.59;5045088;28;20029;-71
2023/10/14 06:50:41;;;;;;;14.13;2.00;;;;;;;10.32;100.00;101002.09;5043403;28;20392;-71
2023/10/14 06:53:10;;;;;;;11.00;1.67;;;;;;;10.33;100.00;100998.38;5027687;28;20033;-73
2023/10/14 06:55:37;;;;;;;8.18;3.72;;;;;;;10.34;100.00;101021.88;5043424;28;20036;-72
2023/10/14 06:58:27;;;;;;;14.98;3.00;;;;;;;10.34;100.00;101016.44;5031367;28;20037;-71
2023/10/14 07:00:53;;;;;;;7.75;2.22;;;;;;;10.33;100.00;101025.59;5025223;28;20591;-72
2023/10/14 07:03:18;;;;;;;13.38;2.35;;;;;;;10.48;100.00;101032.69;5032166;28;20120;-71
2023/10/14 07:05:48;;;;;;;8.10;2.38;;;;;;;10.82;100.00;101020.31;5043387;28;20072;-72
2023/10/14 07:08:15;;;;;;;16.02;1.98;;;;;;;11.47;100.00;101030.16;5027347;28;20049;-72
2023/10/14 07:10:41;;;;;;;16.90;2.65;;;;;;;12.05;96.17;101030.44;5032008;28;20423;-71
2023/10/14 07:13:06;;;;;;;7.15;2.15;;;;;;;12.61;93.40;101038.84;5037139;28;20037;-71
2023/10/14 07:15:36;;;;;;;11.32;1.67;;;;;;;13.06;90.51;101038.97;5026817;28;20037;-71
2023/10/14 07:18:02;;;;;;;9.00;1.85;;;;;;;13.24;90.16;101040.22;5040179;28;20029;-71
2023/10/14 07:20:29;;;;;;;9.23;2.00;;;;;;;13.84;87.35;101041.66;5031037;28;20040;-71
2023/10/14 07:22:59;;;;;;;8.50;1.67;;;;;;;14.07;85.96;101055.28;5046642;28;20045;-72
2023/10/14 07:25:25;;;;;;;8.38;2.10;;;;;;;13.96;85.41;101056.19;5046279;28;20079;-71
2023/10/14 07:27:52;;;;;;;14.93;2.17;;;;;;;13.79;85.39;101057.59;5042735;28;20033;-71
2023/10/14 07:30:19;;;;;;;8.32;2.22;;;;;;;13.46;85.56;101063.97;5044844;28;20124;-71
2023/10/14 07:32:48;;;;;;;9.85;2.20;;;;;;;13.05;86.57;101070.84;5046578;28;20041;-71
2023/10/14 07:35:16;;;;;;;11.52;1.63;;;;;;;12.88;89.47;101071.31;5033037;28;20466;-70
2023/10/14 07:37:44;;;;;;;11.07;2.33;;;;;;;12.71;89.61;101073.50;5025130;28;20102;-71
2023/10/14 07:40:34;;;;;;;16.88;2.40;;;;;;;12.59;89.70;101084.47;5043543;28;20041;-72
2023/10/14 07:43:05;;;;;;;5.50;1.50;;;;;;;12.44;89.61;101089.25;5044275;28;20072;-72
2023/10/14 07:45:33;;;;;;;10.70;2.30;;;;;;;12.36;91.25;101102.66;5045043;28;20036;-72
2023/10/14 07:48:00;;;;;;;11.75;1.70;;;;;;;12.22;90.94;101104.56;5045134;28;20511;-71
2023/10/14 07:50:31;;;;;;;9.50;1.95;;;;;;;12.11;91.83;101099.00;5031950;28;20041;-72
2023/10/14 07:53:07;;;;;;;11.87;2.47;;;;;;;12.06;93.43;101105.81;5030125;28;20401;-72
2023/10/14 07:55:39;;;;;;;10.27;2.40;;;;;;;12.00;92.53;101108.00;5030271;28;20033;-72
2023/10/14 07:58:11;;;;;;;8.60;2.05;;;;;;;11.94;92.28;101102.16;5037404;28;20037;-72
2023/10/14 08:00:41;;;;;;;8.57;2.00;;;;;;;11.92;94.31;101113.16;5048250;28;20687;-72
2023/10/14 08:03:09;;;;;;;9.93;2.08;;;;;;;11.89;92.95;101107.94;5046304;28;20044;-72
2023/10/14 08:05:38;;;;;;;9.23;2.45;;;;;;;11.87;93.55;101122.66;5030007;28;20120;-72
2023/10/14 08:08:09;;;;;;;7.00;2.00;;;;;;;11.86;94.02;101121.78;5030606;28;20045;-72
2023/10/14 08:10:36;;;;;;;8.55;2.00;;;;;;;11.84;93.71;101126.47;5029836;28;20111;-71
2023/10/14 08:13:04;;;;;;;7.53;1.73;;;;;;;11.83;92.78;101132.91;5029963;28;20041;-72
2023/10/14 08:15:34;;;;;;;9.88;2.75;;;;;;;11.86;93.81;101129.97;5027795;28;20041;-71
2023/10/14 08:18:00;;;;;;;10.15;2.38;;;;;;;11.85;94.04;101136.41;5043135;28;20095;-71
2023/10/14 08:20:28;;;;;;;9.65;2.42;;;;;;;11.92;94.92;101142.28;5040875;28;20122;-72
2023/10/14 08:22:54;;;;;;;8.68;1.92;;;;;;;11.95;93.75;101142.94;5045527;28;20041;-71
2023/10/14 08:25:24;;;;;;;10.57;2.47;;;;;;;11.97;94.16;101142.81;5029281;28;20029;-72
2023/10/14 08:27:50;;;;;;;11.48;1.90;;;;;;;12.03;94.51;101150.56;5036000;28;20037;-72
2023/10/14 08:30:16;;;;;;;14.05;2.13;;;;;;;12.12;94.54;101157.16;5029059;28;20407;-72
2023/10/14 08:32:43;;;;;;;16.85;2.10;;;;;;;12.20;94.25;101154.75;5028638;28;20025;-71
2023/10/14 08:35:16;;;;;;;11.65;1.85;;;;;;;12.32;93.88;101151.09;5028871;28;20481;-71
2023/10/14 08:37:50;;;;;;;6.97;1.52;;;;;;;12.50;93.53;101154.31;5028080;28;20067;-71
2023/10/14 08:40:20;;;;;;;7.85;2.00;;;;;;;12.54;89.25;101163.13;5028317;28;20477;-71
2023/10/14 08:42:57;;;;;;;10.77;1.95;;;;;;;12.57;91.73;101168.34;5033412;28;20484;-72
2023/10/14 08:45:26;;;;;;;9.90;1.80;;;;;;;12.56;90.56;101178.41;5030780;28;20064;-72
2023/10/14 08:47:54;;;;;;;16.10;2.78;;;;;;;12.57;89.00;101182.00;5047977;28;20074;-72
2023/10/14 08:50:23;;;;;;;10.07;2.03;;;;;;;12.63;89.73;101179.66;5035166;28;20517;-71
2023/10/14 08:52:50;;;;;;;14.38;1.88;;;;;;;12.75;91.82;101186.94;5028933;28;20033;-72
2023/10/14 08:55:18;;;;;;;9.30;1.95;;;;;;;12.81;89.58;101184.72;5028448;28;20072;-72
2023/10/14 08:57:47;;;;;;;14.35;2.70;;;;;;;12.80;88.49;101183.84;5029005;28;20061;-72
2023/10/14 09:00:19;;;;;;;6.88;1.85;;;;;;;12.87;89.54;101192.44;5028545;28;20072;-72
2023/10/14 09:02:50;;;;;;;14.10;1.60;;;;;;;12.93;87.46;101194.72;5027857;28;20099;-72
2023/10/14 09:05:19;;;;;;;11.18;1.95;;;;;;;13.06;89.19;101202.84;5034750;28;20397;-72
2023/10/14 09:07:49;;;;;;;7.63;1.60;;;;;;;13.11;86.31;101206.97;5028704;28;20511;-73
2023/10/14 09:10:18;;;;;;;5.70;1.70;;;;;;;13.14;86.21;101208.56;5028220;28;20041;-72
2023/10/14 09:13:03;;;;;;;11.60;2.10;;;;;;;13.14;86.97;101214.03;5031896;28;20021;-72
2023/10/14 09:15:33;;;;;;;8.15;2.28;;;;;;;13.20;87.02;101216.31;5042194;28;20037;-72
2023/10/14 09:17:59;;;;;;;10.48;1.63;;;;;;;13.27;87.33;101209.38;5028441;28;20091;-72
2023/10/14 09:20:33;;;;;;;11.85;1.95;;;;;;;13.28;86.16;101216.59;5027920;28;20053;-72
2023/10/14 09:23:15;;;;;;;12.60;2.80;;;;;;;13.30;85.31;101211.91;5028237;28;20489;-72
2023/10/14 09:25:58;;;;;;;9.65;2.15;;;;;;;13.41;87.26;101213.78;5034799;28;20068;-71
2023/10/14 09:28:25;;;;;;;;;;;;;;;13.49;88.62;101219.53;5036761;28;20093;-72
2023/10/14 09:30:51;;;;;;;12.10;2.10;;;;;;;13.55;81.57;101218.16;5027805;28;19928;-72
2023/10/14 09:33:22;;;;;;;14.85;2.60;;;;;;;13.66;85.52;101218.16;5028144;28;20113;-72
2023/10/14 09:35:50;;;;;;;7.50;1.27;;;;;;;13.71;80.79;101222.31;5027911;28;20052;-72
2023/10/14 09:38:22;;;;;;;11.23;2.00;;;;;;;13.74;81.14;101222.03;5027688;28;20544;-73
2023/10/14 09:40:53;;;;;;;;;;;;;;;13.81;82.98;101216.09;5027661;28;20033;-72
2023/10/14 09:43:20;;;;;;;8.40;2.30;;;;;;;13.73;79.12;101231.25;5032420;28;19917;-72
2023/10/14 09:45:47;;;;;;;13.38;1.95;;;;;;;13.73;80.61;101225.78;5027559;28;20120;-73
2023/10/14 09:48:15;;;;;;;14.00;2.30;;;;;;;13.72;76.88;101231.38;5035881;28;20039;-72
2023/10/14 09:50:43;;;;;;;9.27;1.63;;;;;;;13.78;76.55;101233.59;5030803;28;20120;-72
2023/10/14 09:53:12;;;;;;;11.38;1.70;;;;;;;13.89;77.56;101228.13;5027752;28;20038;-72
2023/10/14 09:55:38;;;;;;;11.77;1.77;;;;;;;14.00;78.78;101239.09;5044925;28;20033;-73
2023/10/14 09:58:04;;;;;;;13.90;2.25;;;;;;;14.04;73.83;101229.66;5045732;28;20373;-72
2023/10/14 10:00:33;;;;;;;7.28;2.13;;;;;;;14.15;75.63;101237.00;5047346;28;20064;-73
2023/10/14 10:03:04;;;;;;;16.30;1.95;;;;;;;14.25;75.29;101240.72;5044552;28;20132;-73
2023/10/14 10:05:39;;;;;;;9.68;1.73;;;;;;;14.38;74.75;101232.38;5044434;28;20033;-73
2023/10/14 10:08:35;;;;;;;6.93;2.45;;;;;;;14.51;75.59;101243.22;5046901;28;20174;-73
2023/10/14 10:11:01;;;;;;;10.48;1.88;;;;;;;14.57;74.26;101250.06;5026047;28;20132;-73
2023/10/14 10:13:29;;;;;;;4.88;1.55;;;;;;;14.69;75.20;101249.03;5027087;28;20497;-73
2023/10/14 10:16:02;;;;;;;9.32;2.40;;;;;;;14.68;72.50;101253.63;5008104;28;20401;-72
2023/10/14 10:18:50;;;;;;;14.93;2.05;;;;;;;14.71;72.52;101247.03;5026919;28;20501;-72
2023/10/14 10:21:18;;;;;;;13.13;1.67;;;;;;;14.79;71.37;101255.50;5027375;28;20040;-72
2023/10/14 10:23:44;;;;;;;11.52;1.92;;;;;;;14.84;70.77;101252.38;5035816;28;20132;-73
2023/10/14 10:26:12;;;;;;;9.68;1.50;;;;;;;14.85;72.54;101256.84;5045064;28;20112;-73
2023/10/14 10:28:38;;;;;;;11.57;2.45;;;;;;;14.71;65.93;101263.47;5041385;28;20036;-72
2023/10/14 10:31:12;;;;;;;7.55;2.00;;;;;;;14.61;66.27;101257.03;5042396;28;20123;-72
2023/10/14 10:34:02;;;;;;;12.25;2.00;;;;;;;14.51;66.27;101263.25;5045482;28;20024;-72
2023/10/14 10:36:32;;;;;;;9.75;1.63;;;;;;;14.63;64.50;101263.22;5045788;28;20037;-72
2023/10/14 10:39:07;;;;;;;6.55;1.48;;;;;;;14.74;67.34;101266.81;5041022;28;20057;-72
2023/10/14 10:41:37;;;;;;;7.65;1.80;;;;;;;14.93;65.77;101271.63;5026129;28;20041;-72
2023/10/14 10:44:05;;;;;;;6.40;1.80;;;;;;;15.17;64.87;101268.69;5027166;28;20416;-72
2023/10/14 10:46:41;;;;;;;9.45;1.77;;;;;;;15.52;67.52;101267.50;5009464;28;20037;-72
2023/10/14 10:49:10;;;;;;;6.00;1.30;;;;;;;15.76;65.11;101270.94;5037253;28;20155;-73
2023/10/14 10:51:36;;;;;;;8.13;1.50;;;;;;;15.86;59.18;101276.47;5027605;28;20041;-72
2023/10/14 10:54:02;;;;;;;8.98;1.55;;;;;;;15.71;61.33;101275.03;5026249;28;20481;-72
2023/10/14 10:56:33;;;;;;;6.47;1.63;;;;;;;15.74;64.51;101277.53;5036662;28;20051;-72
2023/10/14 10:59:04;;;;;;;8.23;1.83;;;;;;;15.80;60.17;101275.09;5044583;28;20524;-72
2023/10/14 11:01:31;;;;;;;17.08;1.80;;;;;;;15.93;62.65;101274.91;5046640;28;20485;-72
2023/10/14 11:04:08;;;;;;;9.15;1.50;;;;;;;16.18;61.58;101283.69;5041117;28;20046;-73
2023/10/14 11:06:35;;;;;;;8.10;1.58;;;;;;;16.42;62.30;101287.03;5027714;28;20033;-72
2023/10/14 11:09:01;;;;;;;9.98;2.05;;;;;;;16.50;61.11;101278.94;5030673;28;20028;-72
2023/10/14 11:11:30;;;;;;;8.63;1.77;;;;;;;16.58;61.79;101283.75;5046497;28;20037;-72
2023/10/14 11:13:56;;;;;;;6.72;1.75;;;;;;;16.66;62.32;101283.06;5013826;28;20052;-72
2023/10/14 11:16:22;;;;;;;5.95;1.70;;;;;;;16.77;60.74;101283.84;5026122;28;20033;-71
2023/10/14 11:18:50;;;;;;;8.45;1.83;;;;;;;16.63;57.99;101280.56;5026300;28;20041;-72
2023/10/14 11:21:17;;;;;;;9.05;1.85;;;;;;;16.26;59.60;101290.25;5028878;28;20044;-72
2023/10/14 11:23:44;;;;;;;9.50;1.90;;;;;;;16.20;61.35;101288.06;5053633;28;20060;-72
2023/10/14 11:26:11;;;;;;;12.20;2.05;;;;;;;16.07;64.54;101288.28;5042792;28;20056;-72
2023/10/14 11:28:45;;;;;;;14.23;2.20;;;;;;;16.01;59.98;101297.06;5033710;28;20030;-72
2023/10/14 11:31:14;;;;;;;12.68;1.77;;;;;;;15.72;61.52;101296.00;5045771;28;20044;-72
2023/10/14 11:33:45;;;;;;;10.35;1.98;;;;;;;15.27;59.74;101304.41;5039782;28;20041;-72
2023/10/14 11:36:19;;;;;;;6.40;1.40;;;;;;;14.92;61.44;101307.34;5055346;28;20044;-72
2023/10/14 11:38:47;;;;;;;9.07;1.85;;;;;;;14.57;61.05;101302.06;5061855;28;20053;-72
2023/10/14 11:41:15;;;;;;;7.60;1.60;;;;;;;14.42;64.75;101305.03;5044649;28;20037;-71
2023/10/14 11:43:44;;;;;;;11.63;1.48;;;;;;;14.42;65.98;101307.78;5045699;28;20374;-71
2023/10/14 11:46:10;;;;;;;5.35;1.52;;;;;;;14.45;68.83;101307.50;5039747;28;20559;-72
2023/10/14 11:48:37;;;;;;;8.85;2.85;;;;;;;14.33;63.69;101303.03;5027564;28;20041;-72
2023/10/14 11:51:04;;;;;;;12.02;1.45;;;;;;;14.28;64.83;101308.91;5036841;28;20080;-71
2023/10/14 11:53:33;;;;;;;9.18;1.73;;;;;;;14.20;63.72;101308.63;5045099;28;20513;-71